createdAt,value
2019-03-20T00:01:43.923Z,96731.00
2019-03-20T00:04:13.602Z,96724.00
2019-03-20T00:06:43.981Z,96733.00
2019-03-20T00:09:14.517Z,96733.00
2019-03-20T00:11:44.861Z,96723.00
2019-03-20T00:14:15.342Z,96733.00
2019-03-20T00:16:45.697Z,96736.00
2019-03-20T00:19:16.061Z,96733.00
2019-03-20T00:21:46.442Z,96729.00
2019-03-20T00:24:16.775Z,96723.00
2019-03-20T00:26:47.181Z,96731.00
2019-03-20T00:29:17.537Z,96736.00
2019-03-20T00:31:47.897Z,96736.00
2019-03-20T00:34:18.217Z,96728.00
2019-03-20T00:36:48.597Z,96729.00
2019-03-20T00:39:18.941Z,96739.00
2019-03-20T00:41:49.348Z,96742.00
2019-03-20T00:44:19.725Z,96743.00
2019-03-20T00:46:50.066Z,96749.00
2019-03-20T00:49:20.473Z,96741.00
2019-03-20T00:51:50.873Z,96740.00
2019-03-20T00:54:21.277Z,96736.00
2019-03-20T00:56:53.158Z,96739.00
2019-03-20T00:59:23.572Z,96742.00
2019-03-20T01:01:53.960Z,96744.00
2019-03-20T01:04:24.335Z,96730.00
2019-03-20T01:06:54.687Z,96734.00
2019-03-20T01:09:25.398Z,96741.00
2019-03-20T01:11:55.773Z,96735.00
2019-03-20T01:14:26.149Z,96729.00
2019-03-20T01:16:56.581Z,96730.00
2019-03-20T01:19:26.936Z,96733.00
2019-03-20T01:21:57.259Z,96736.00
2019-03-20T01:24:27.677Z,96734.00
2019-03-20T01:26:58.113Z,96735.00
2019-03-20T01:29:28.459Z,96731.00
2019-03-20T01:31:58.795Z,96726.00
2019-03-20T01:34:29.153Z,96726.00
2019-03-20T01:36:59.489Z,96723.00
2019-03-20T01:39:29.941Z,96730.00
2019-03-20T01:42:00.287Z,96732.00
2019-03-20T01:44:30.699Z,96728.00
2019-03-20T01:47:01.050Z,96725.00
2019-03-20T01:49:31.547Z,96729.00
2019-03-20T01:52:01.969Z,96727.00
2019-03-20T01:54:32.331Z,96725.00
2019-03-20T01:57:02.659Z,96733.00
2019-03-20T01:59:33.018Z,96718.00
2019-03-20T02:02:03.651Z,96730.00
2019-03-20T02:04:34.000Z,96727.00
2019-03-20T02:07:04.345Z,96734.00
2019-03-20T02:09:34.702Z,96729.00
2019-03-20T02:12:05.046Z,96728.00
2019-03-20T02:14:35.371Z,96724.00
2019-03-20T02:17:05.796Z,96718.00
2019-03-20T02:19:36.140Z,96728.00
2019-03-20T02:22:06.523Z,96719.00
2019-03-20T02:24:36.844Z,96735.00
2019-03-20T02:27:07.239Z,96715.00
2019-03-20T02:29:37.658Z,96721.00
2019-03-20T02:32:08.047Z,96717.00
2019-03-20T02:34:38.366Z,96720.00
2019-03-20T02:37:08.784Z,96718.00
2019-03-20T02:39:39.158Z,96711.00
2019-03-20T02:42:09.551Z,96714.00
2019-03-20T02:44:39.949Z,96715.00
2019-03-20T02:47:10.361Z,96716.00
2019-03-20T02:49:40.702Z,96704.00
2019-03-20T02:52:11.079Z,96710.00
2019-03-20T02:54:41.458Z,96706.00
2019-03-20T02:57:11.817Z,96709.00
2019-03-20T02:59:42.184Z,96710.00
2019-03-20T03:02:12.528Z,96714.00
2019-03-20T03:04:42.892Z,96711.00
2019-03-20T03:07:13.259Z,96703.00
2019-03-20T03:09:43.644Z,96708.00
2019-03-20T03:12:14.005Z,96713.00
2019-03-20T03:14:44.341Z,96706.00
2019-03-20T03:17:14.676Z,96715.00
2019-03-20T03:19:45.057Z,96705.00
2019-03-20T03:22:15.405Z,96703.00
2019-03-20T03:24:45.753Z,96714.00
2019-03-20T03:27:16.093Z,96712.00
2019-03-20T03:29:46.463Z,96717.00
2019-03-20T03:32:16.793Z,96717.00
2019-03-20T03:34:47.119Z,96724.00
2019-03-20T03:37:17.453Z,96728.00
2019-03-20T03:39:47.813Z,96727.00
2019-03-20T03:42:18.121Z,96722.00
2019-03-20T03:44:48.595Z,96730.00
2019-03-20T03:47:19.064Z,96730.00
2019-03-20T03:49:49.455Z,96726.00
2019-03-20T03:52:19.775Z,96730.00
2019-03-20T03:54:50.187Z,96727.00
2019-03-20T03:57:20.537Z,96733.00
2019-03-20T03:59:50.960Z,96740.00
2019-03-20T04:02:21.328Z,96745.00
2019-03-20T04:04:51.777Z,96735.00
2019-03-20T04:07:23.705Z,96745.00
2019-03-20T04:09:54.233Z,96748.00
2019-03-20T04:12:24.660Z,96751.00
2019-03-20T04:14:54.986Z,96756.00
2019-03-20T04:17:29.168Z,96755.00
2019-03-20T04:19:59.544Z,96759.00
2019-03-20T04:22:29.921Z,96758.00
2019-03-20T04:25:00.472Z,96757.00
2019-03-20T04:27:30.892Z,96764.00
2019-03-20T04:30:01.275Z,96766.00
2019-03-20T04:32:31.727Z,96759.00
2019-03-20T04:35:02.077Z,96765.00
2019-03-20T04:37:32.465Z,96765.00
2019-03-20T04:40:02.811Z,96775.00
2019-03-20T04:42:33.176Z,96766.00
2019-03-20T04:45:03.587Z,96770.00
2019-03-20T04:47:34.071Z,96784.00
2019-03-20T04:50:05.204Z,96775.00
2019-03-20T04:52:35.560Z,96786.00
2019-03-20T04:55:06.524Z,96785.00
2019-03-20T04:57:36.882Z,96787.00
2019-03-20T05:00:10.475Z,96778.00
2019-03-20T05:02:40.820Z,96789.00
2019-03-20T05:05:11.178Z,96791.00
2019-03-20T05:07:41.569Z,96800.00
2019-03-20T05:10:13.322Z,96796.00
2019-03-20T05:12:46.738Z,96808.00
2019-03-20T05:15:17.122Z,96809.00
2019-03-20T05:17:47.531Z,96816.00
2019-03-20T05:20:17.944Z,96818.00
2019-03-20T05:22:48.290Z,96821.00
2019-03-20T05:25:18.733Z,96820.00
2019-03-20T05:27:49.188Z,96818.00
2019-03-20T05:30:19.547Z,96825.00
2019-03-20T05:32:49.986Z,96829.00
2019-03-20T05:35:20.476Z,96829.00
2019-03-20T05:37:50.853Z,96842.00
2019-03-20T05:40:21.257Z,96840.00
2019-03-20T05:42:51.599Z,96840.00
2019-03-20T05:45:22.044Z,96835.00
2019-03-20T05:47:52.480Z,96838.00
2019-03-20T05:50:22.851Z,96844.00
2019-03-20T05:52:53.288Z,96845.00
2019-03-20T05:55:23.693Z,96849.00
2019-03-20T05:57:54.082Z,96847.00
2019-03-20T06:00:26.296Z,96858.00
2019-03-20T06:02:56.704Z,96859.00
2019-03-20T06:05:27.064Z,96854.00
2019-03-20T06:07:57.452Z,96858.00
2019-03-20T06:10:27.807Z,96858.00
2019-03-20T06:12:58.339Z,96876.00
2019-03-20T06:15:28.745Z,96877.00
2019-03-20T06:17:59.139Z,96869.00
2019-03-20T06:20:29.545Z,96875.00
2019-03-20T06:23:00.018Z,96870.00
2019-03-20T06:25:33.856Z,96881.00
2019-03-20T06:28:04.655Z,96883.00
2019-03-20T06:30:35.230Z,96890.00
2019-03-20T06:33:05.801Z,96877.00
2019-03-20T06:35:36.721Z,96886.00
2019-03-20T06:38:07.369Z,96876.00
2019-03-20T06:40:41.156Z,96890.00
2019-03-20T06:43:12.229Z,96876.00
2019-03-20T06:45:43.094Z,96883.00
2019-03-20T06:48:13.435Z,96882.00
2019-03-20T06:50:43.826Z,96893.00
2019-03-20T06:53:14.361Z,96884.00
2019-03-20T06:55:46.569Z,96907.00
2019-03-20T06:58:16.887Z,96900.00
2019-03-20T07:01:17.814Z,96894.00
2019-03-20T07:04:25.312Z,96900.00
2019-03-20T07:07:23.296Z,96903.00
2019-03-20T07:10:20.021Z,96898.00
2019-03-20T07:12:50.423Z,96905.00
2019-03-20T07:15:21.385Z,96908.00
2019-03-20T07:17:51.948Z,96904.00
2019-03-20T07:20:22.361Z,96911.00
2019-03-20T07:22:52.751Z,96914.00
2019-03-20T07:25:23.153Z,96909.00
2019-03-20T07:27:53.893Z,96912.00
2019-03-20T07:30:24.641Z,96909.00
2019-03-20T07:32:55.221Z,96910.00
2019-03-20T07:35:25.565Z,96921.00
2019-03-20T07:37:56.544Z,96926.00
2019-03-20T07:40:27.732Z,96922.00
2019-03-20T07:43:08.304Z,96920.00
2019-03-20T07:45:30.213Z,96920.00
2019-03-20T07:48:00.611Z,96910.00
2019-03-20T07:50:30.995Z,96924.00
2019-03-20T07:53:01.448Z,96918.00
2019-03-20T07:55:32.615Z,96911.00
2019-03-20T07:58:02.991Z,96917.00
2019-03-20T08:00:33.334Z,96915.00
2019-03-20T08:03:03.722Z,96902.00
2019-03-20T08:05:34.054Z,96910.00
2019-03-20T08:08:07.482Z,96922.00
2019-03-20T08:10:38.857Z,96921.00
2019-03-20T08:13:09.275Z,96926.00
2019-03-20T08:15:39.675Z,96927.00
2019-03-20T08:18:10.677Z,96925.00
2019-03-20T08:20:41.075Z,96915.00
2019-03-20T08:23:11.491Z,96927.00
2019-03-20T08:25:41.851Z,96929.00
2019-03-20T08:28:12.287Z,96925.00
2019-03-20T08:30:42.631Z,96929.00
2019-03-20T08:33:12.978Z,96926.00
2019-03-20T08:35:43.493Z,96923.00
2019-03-20T08:38:18.151Z,96923.00
2019-03-20T08:40:45.951Z,96921.00
2019-03-20T08:43:16.334Z,96915.00
2019-03-20T08:45:46.683Z,96921.00
2019-03-20T08:48:17.071Z,96925.00
2019-03-20T08:50:47.405Z,96924.00
2019-03-20T08:53:17.832Z,96932.00
2019-03-20T08:55:48.256Z,96940.00
2019-03-20T08:58:18.813Z,96930.00
2019-03-20T09:00:49.506Z,96936.00
2019-03-20T09:03:19.914Z,96925.00
2019-03-20T09:05:50.256Z,96936.00
2019-03-20T09:08:28.967Z,96935.00
2019-03-20T09:10:52.761Z,96940.00
2019-03-20T09:13:23.133Z,96931.00
2019-03-20T09:15:53.519Z,96930.00
2019-03-20T09:18:23.901Z,96945.00
2019-03-20T09:20:54.326Z,96935.00
2019-03-20T09:23:24.699Z,96937.00
2019-03-20T09:25:55.052Z,96936.00
2019-03-20T09:28:25.477Z,96935.00
2019-03-20T09:30:55.866Z,96943.00
2019-03-20T09:33:26.224Z,96937.00
2019-03-20T09:35:56.569Z,96937.00
2019-03-20T09:38:26.951Z,96935.00
2019-03-20T09:40:57.309Z,96944.00
2019-03-20T09:43:27.720Z,96937.00
2019-03-20T09:45:58.092Z,96934.00
2019-03-20T09:48:28.551Z,96936.00
2019-03-20T09:50:59.361Z,96939.00
2019-03-20T09:53:29.694Z,96935.00
2019-03-20T09:56:00.042Z,96940.00
2019-03-20T09:58:30.425Z,96935.00
2019-03-20T10:01:01.402Z,96932.00
2019-03-20T10:03:31.782Z,96938.00
2019-03-20T10:06:02.485Z,96936.00
2019-03-20T10:08:33.096Z,96935.00
2019-03-20T10:11:03.458Z,96942.00
2019-03-20T10:13:33.811Z,96930.00
2019-03-20T10:16:04.689Z,96936.00
2019-03-20T10:18:35.084Z,96934.00
2019-03-20T10:21:05.671Z,96936.00
2019-03-20T10:23:36.132Z,96939.00
2019-03-20T10:26:06.910Z,96935.00
2019-03-20T10:28:37.295Z,96934.00
2019-03-20T10:31:07.685Z,96941.00
2019-03-20T10:33:38.437Z,96935.00
2019-03-20T10:36:08.844Z,96937.00
2019-03-20T10:38:39.945Z,96936.00
2019-03-20T10:41:10.540Z,96935.00
2019-03-20T10:43:41.129Z,96936.00
2019-03-20T10:46:11.794Z,96948.00
2019-03-20T10:48:42.416Z,96945.00
2019-03-20T10:51:13.127Z,96934.00
2019-03-20T10:53:43.758Z,96951.00
2019-03-20T10:56:14.689Z,96945.00
2019-03-20T10:58:45.328Z,96936.00
2019-03-20T11:01:15.923Z,96940.00
2019-03-20T11:03:46.533Z,96944.00
2019-03-20T11:06:17.182Z,96938.00
2019-03-20T11:08:47.744Z,96946.00
2019-03-20T11:11:26.671Z,96946.00
2019-03-20T11:13:50.707Z,96943.00
2019-03-20T11:16:21.334Z,96956.00
2019-03-20T11:18:51.949Z,96942.00
2019-03-20T11:21:22.539Z,96943.00
2019-03-20T11:23:53.132Z,96956.00
2019-03-20T11:26:23.709Z,96952.00
2019-03-20T11:28:54.307Z,96949.00
2019-03-20T11:31:24.907Z,96951.00
2019-03-20T11:33:55.531Z,96950.00
2019-03-20T11:36:25.959Z,96947.00
2019-03-20T11:38:56.615Z,96944.00
2019-03-20T11:41:27.250Z,96951.00
2019-03-20T11:43:57.811Z,96949.00
2019-03-20T11:46:28.451Z,96952.00
2019-03-20T11:48:59.083Z,96950.00
2019-03-20T11:51:29.527Z,96954.00
2019-03-20T11:54:00.225Z,96951.00
2019-03-20T11:56:31.937Z,96951.00
2019-03-20T11:59:02.652Z,96944.00
2019-03-20T12:01:33.203Z,96937.00
2019-03-20T12:04:03.671Z,96949.00
2019-03-20T12:06:34.347Z,96946.00
2019-03-20T12:09:08.275Z,96941.00
2019-03-20T12:11:45.852Z,96947.00
2019-03-20T12:14:11.065Z,96944.00
2019-03-20T12:16:41.885Z,96943.00
2019-03-20T12:19:12.607Z,96950.00
2019-03-20T12:21:43.271Z,96953.00
2019-03-20T12:24:13.685Z,96946.00
2019-03-20T12:26:44.373Z,96946.00
2019-03-20T12:29:15.098Z,96940.00
2019-03-20T12:31:48.649Z,96945.00
2019-03-20T12:34:19.003Z,96925.00
2019-03-20T12:36:49.563Z,96923.00
2019-03-20T12:39:19.960Z,96926.00
2019-03-20T12:41:50.285Z,96920.00
2019-03-20T12:44:20.707Z,96921.00
2019-03-20T12:46:51.124Z,96908.00
2019-03-20T12:49:21.509Z,96912.00
2019-03-20T12:51:51.933Z,96915.00
2019-03-20T12:54:22.307Z,96910.00
2019-03-20T12:56:52.829Z,96919.00
2019-03-20T12:59:23.195Z,96916.00
2019-03-20T13:01:53.585Z,96913.00
2019-03-20T13:04:23.945Z,96913.00
2019-03-20T13:06:54.285Z,96907.00
2019-03-20T13:09:24.669Z,96910.00
2019-03-20T13:11:55.096Z,96909.00
2019-03-20T13:14:25.431Z,96905.00
2019-03-20T13:16:55.858Z,96902.00
2019-03-20T13:19:26.233Z,96893.00
2019-03-20T13:21:56.628Z,96894.00
2019-03-20T13:24:26.987Z,96899.00
2019-03-20T13:26:57.383Z,96894.00
2019-03-20T13:29:27.760Z,96894.00
2019-03-20T13:31:58.110Z,96897.00
2019-03-20T13:34:28.485Z,96886.00
2019-03-20T13:36:58.952Z,96897.00
2019-03-20T13:39:29.344Z,96892.00
2019-03-20T13:41:59.766Z,96893.00
2019-03-20T13:44:30.167Z,96887.00
2019-03-20T13:47:00.571Z,96887.00
2019-03-20T13:49:31.021Z,96894.00
2019-03-20T13:52:01.378Z,96886.00
2019-03-20T13:54:31.789Z,96886.00
2019-03-20T13:57:02.161Z,96888.00
2019-03-20T13:59:32.623Z,96889.00
2019-03-20T14:02:02.984Z,96887.00
2019-03-20T14:04:33.378Z,96884.00
2019-03-20T14:07:03.808Z,96884.00
2019-03-20T14:09:34.232Z,96879.00
2019-03-20T14:12:04.639Z,96877.00
2019-03-20T14:14:35.014Z,96881.00
2019-03-20T14:17:05.457Z,96886.00
2019-03-20T14:19:35.819Z,96878.00
2019-03-20T14:22:06.229Z,96869.00
2019-03-20T14:24:36.603Z,96876.00
2019-03-20T14:27:07.014Z,96877.00
2019-03-20T14:29:39.597Z,96870.00
2019-03-20T14:32:09.548Z,96860.00
2019-03-20T14:34:39.982Z,96869.00
2019-03-20T14:37:10.492Z,96868.00
2019-03-20T14:39:40.907Z,96872.00
2019-03-20T14:42:11.333Z,96870.00
2019-03-20T14:44:41.715Z,96875.00
2019-03-20T14:47:12.182Z,96869.00
2019-03-20T14:49:42.605Z,96871.00
2019-03-20T14:52:12.993Z,96871.00
2019-03-20T14:54:43.354Z,96860.00
2019-03-20T14:57:13.740Z,96863.00
2019-03-20T14:59:44.132Z,96864.00
2019-03-20T15:02:14.625Z,96864.00
2019-03-20T15:04:44.993Z,96856.00
2019-03-20T15:07:15.469Z,96863.00
2019-03-20T15:09:45.794Z,96863.00
2019-03-20T15:12:16.217Z,96862.00
2019-03-20T15:14:46.590Z,96858.00
2019-03-20T15:17:16.953Z,96857.00
2019-03-20T15:19:47.343Z,96852.00
2019-03-20T15:22:24.198Z,96858.00
2019-03-20T15:24:56.494Z,96852.00
2019-03-20T15:27:27.252Z,96860.00
2019-03-20T15:29:57.622Z,96863.00
2019-03-20T15:32:28.023Z,96862.00
2019-03-20T15:35:02.137Z,96867.00
2019-03-20T15:37:32.460Z,96864.00
2019-03-20T15:40:02.894Z,96863.00
2019-03-20T15:42:33.273Z,96862.00
2019-03-20T15:45:03.737Z,96860.00
2019-03-20T15:47:34.130Z,96861.00
2019-03-20T15:50:05.904Z,96859.00
2019-03-20T15:52:36.500Z,96862.00
2019-03-20T15:55:09.669Z,96857.00
2019-03-20T15:57:40.400Z,96870.00
2019-03-20T16:00:15.844Z,96865.00
2019-03-20T16:02:46.903Z,96854.00
2019-03-20T16:05:17.974Z,96868.00
2019-03-20T16:07:48.584Z,96868.00
2019-03-20T16:10:20.994Z,96864.00
2019-03-20T16:12:51.456Z,96866.00
2019-03-20T16:15:22.630Z,96871.00
2019-03-20T16:17:53.493Z,96876.00
2019-03-20T16:20:24.106Z,96875.00
2019-03-20T16:22:54.731Z,96880.00
2019-03-20T16:25:25.384Z,96879.00
2019-03-20T16:27:56.017Z,96889.00
2019-03-20T16:30:26.691Z,96880.00
2019-03-20T16:32:57.175Z,96874.00
2019-03-20T16:35:27.580Z,96893.00
2019-03-20T16:37:57.983Z,96892.00
2019-03-20T16:40:30.223Z,96893.00
2019-03-20T16:43:01.507Z,96900.00
2019-03-20T16:45:32.405Z,96900.00
2019-03-20T16:48:02.815Z,96905.00
2019-03-20T16:50:33.237Z,96908.00
2019-03-20T16:53:03.616Z,96905.00
2019-03-20T16:55:33.996Z,96913.00
2019-03-20T16:58:06.169Z,96905.00
2019-03-20T17:00:37.089Z,96914.00
2019-03-20T17:03:07.876Z,96925.00
2019-03-20T17:05:38.313Z,96925.00
2019-03-20T17:08:08.889Z,96919.00
2019-03-20T17:10:40.307Z,96928.00
2019-03-20T17:13:11.305Z,96924.00
2019-03-20T17:15:41.791Z,96931.00
2019-03-20T17:18:12.217Z,96931.00
2019-03-20T17:20:42.745Z,96943.00
2019-03-20T17:23:13.668Z,96942.00
2019-03-20T17:25:49.295Z,96950.00
2019-03-20T17:28:19.887Z,96956.00
2019-03-20T17:30:50.572Z,96954.00
2019-03-20T17:33:20.951Z,96954.00
2019-03-20T17:35:51.391Z,96965.00
2019-03-20T17:38:21.879Z,96961.00
2019-03-20T17:40:55.249Z,96964.00
2019-03-20T17:43:25.654Z,96958.00
2019-03-20T17:45:56.085Z,96961.00
2019-03-20T17:48:26.486Z,96956.00
2019-03-20T17:50:56.875Z,96959.00
2019-03-20T17:53:27.905Z,96951.00
2019-03-20T17:55:58.609Z,96961.00
2019-03-20T17:58:29.214Z,96968.00
2019-03-20T18:00:59.639Z,96972.00
2019-03-20T18:03:30.135Z,96971.00
2019-03-20T18:06:01.140Z,96972.00
2019-03-20T18:08:31.839Z,96973.00
2019-03-20T18:11:02.166Z,96974.00
2019-03-20T18:13:32.558Z,96985.00
2019-03-20T18:16:02.958Z,96999.00
2019-03-20T18:18:33.393Z,96986.00
2019-03-20T18:21:03.796Z,96983.00
2019-03-20T18:23:34.199Z,96976.00
2019-03-20T18:26:04.592Z,96972.00
2019-03-20T18:28:35.327Z,96986.00
2019-03-20T18:31:05.747Z,96981.00
2019-03-20T18:33:36.146Z,96979.00
2019-03-20T18:36:06.586Z,96992.00
2019-03-20T18:38:37.029Z,97000.00
2019-03-20T18:41:08.301Z,96998.00
2019-03-20T18:43:39.103Z,97008.00
2019-03-20T18:46:09.513Z,97014.00
2019-03-20T18:48:39.933Z,97016.00
2019-03-20T18:51:10.397Z,97024.00
2019-03-20T18:53:41.083Z,97025.00
2019-03-20T18:56:11.807Z,97022.00
2019-03-20T18:58:42.508Z,97010.00
2019-03-20T19:01:13.088Z,97018.00
2019-03-20T19:03:46.356Z,97013.00
2019-03-20T19:06:22.558Z,97003.00
2019-03-20T19:08:53.072Z,97004.00
2019-03-20T19:11:24.003Z,97015.00
2019-03-20T19:13:54.468Z,97007.00
2019-03-20T19:16:24.942Z,97015.00
2019-03-20T19:18:55.519Z,97025.00
2019-03-20T19:21:26.514Z,97019.00
2019-03-20T19:23:56.993Z,97008.00
2019-03-20T19:26:27.520Z,97020.00
2019-03-20T19:28:58.072Z,97022.00
2019-03-20T19:31:28.405Z,97016.00
2019-03-20T19:34:01.143Z,97013.00
2019-03-20T19:36:31.528Z,97025.00
2019-03-20T19:39:02.300Z,97021.00
2019-03-20T19:41:32.770Z,97026.00
2019-03-20T19:44:06.338Z,97030.00
2019-03-20T19:47:17.255Z,97021.00
2019-03-20T19:49:59.813Z,97023.00
2019-03-20T19:52:38.686Z,97018.00
2019-03-20T19:55:11.269Z,97018.00
2019-03-20T19:57:55.574Z,97036.00
2019-03-20T20:00:32.084Z,97023.00
2019-03-20T20:03:05.896Z,97034.00
2019-03-20T20:05:37.612Z,97042.00
2019-03-20T20:08:08.432Z,97041.00
2019-03-20T20:10:39.140Z,97033.00
2019-03-20T20:13:09.952Z,97032.00
2019-03-20T20:15:46.450Z,97036.00
2019-03-20T20:18:18.415Z,97041.00
2019-03-20T20:20:53.630Z,97043.00
2019-03-20T20:23:24.194Z,97042.00
2019-03-20T20:25:54.637Z,97041.00
2019-03-20T20:28:25.001Z,97034.00
2019-03-20T20:30:57.082Z,97042.00
2019-03-20T20:33:28.046Z,97047.00
2019-03-20T20:35:58.464Z,97050.00
2019-03-20T20:38:29.009Z,97052.00
2019-03-20T20:40:59.426Z,97054.00
2019-03-20T20:43:30.014Z,97053.00
2019-03-20T20:46:00.357Z,97045.00
2019-03-20T20:48:31.066Z,97061.00
2019-03-20T20:51:01.500Z,97057.00
2019-03-20T20:53:31.869Z,97050.00
2019-03-20T20:56:02.235Z,97052.00
2019-03-20T20:58:32.667Z,97065.00
2019-03-20T21:01:03.012Z,97063.00
2019-03-20T21:03:33.369Z,97061.00
2019-03-20T21:06:03.876Z,97077.00
2019-03-20T21:08:36.491Z,97070.00
2019-03-20T21:11:07.123Z,97065.00
2019-03-20T21:13:37.673Z,97058.00
2019-03-20T21:16:08.921Z,97067.00
2019-03-20T21:19:31.651Z,97060.00
2019-03-20T21:23:06.140Z,97066.00
2019-03-20T21:25:37.758Z,97067.00
2019-03-20T21:29:01.024Z,97076.00
2019-03-20T21:31:50.227Z,97062.00
2019-03-20T21:35:05.815Z,97061.00
2019-03-20T21:38:04.993Z,97068.00
2019-03-20T21:41:35.997Z,97073.00
2019-03-20T21:44:53.597Z,97067.00
2019-03-20T21:47:36.816Z,97065.00
2019-03-20T21:51:22.173Z,97057.00
2019-03-20T21:54:57.144Z,97053.00
2019-03-20T21:58:15.355Z,97063.00
2019-03-20T22:01:37.394Z,97053.00
2019-03-20T22:04:08.609Z,97057.00
2019-03-20T22:07:10.110Z,97056.00
2019-03-20T22:11:19.916Z,97057.00
2019-03-20T22:14:06.069Z,97056.00
2019-03-20T22:17:49.897Z,97044.00
2019-03-20T22:21:04.431Z,97055.00
2019-03-20T22:24:29.942Z,97053.00
2019-03-20T22:27:37.500Z,97048.00
2019-03-20T22:30:09.160Z,97048.00
2019-03-20T22:33:47.188Z,97040.00
2019-03-20T22:36:33.656Z,97042.00
2019-03-20T22:40:18.916Z,97039.00
2019-03-20T22:43:09.362Z,97042.00
2019-03-20T22:46:41.329Z,97048.00
2019-03-20T22:50:13.470Z,97048.00
2019-03-20T22:53:56.053Z,97042.00
2019-03-20T22:57:04.072Z,97038.00
2019-03-20T22:59:35.339Z,97031.00
2019-03-20T23:02:20.695Z,97027.00
2019-03-20T23:04:56.589Z,97033.00
2019-03-20T23:07:27.888Z,97030.00
2019-03-20T23:09:59.075Z,97039.00
2019-03-20T23:12:30.304Z,97034.00
2019-03-20T23:15:01.475Z,97038.00
2019-03-20T23:17:32.607Z,97030.00
2019-03-20T23:20:04.239Z,97032.00
2019-03-20T23:22:35.405Z,97025.00
2019-03-20T23:25:07.428Z,97025.00
2019-03-20T23:27:38.600Z,97019.00
2019-03-20T23:30:16.207Z,97025.00
2019-03-20T23:32:47.398Z,97034.00
2019-03-20T23:35:18.611Z,97030.00
2019-03-20T23:37:49.839Z,97032.00
2019-03-20T23:40:21.131Z,97026.00
2019-03-20T23:42:52.400Z,97029.00
2019-03-20T23:45:23.584Z,97020.00
2019-03-20T23:48:25.176Z,97020.00
2019-03-20T23:51:01.828Z,97010.00
2019-03-20T23:53:33.436Z,97011.00
2019-03-20T23:56:04.648Z,97020.00
2019-03-20T23:58:35.817Z,97026.00
